sensor_id;sensor_type;location;lat;lon;timestamp;P1;durP1;ratioP1;P2;durP2;ratioP2
69319;SDS011;56467;53.502;49.248;2023-07-13T00:00:34;1.33;;;1.23;;
69319;SDS011;56467;53.502;49.248;2023-07-13T00:03:01;1.42;;;1.13;;
69319;SDS011;56467;53.502;49.248;2023-07-13T00:05:27;1.60;;;1.30;;
69319;SDS011;56467;53.502;49.248;2023-07-13T00:07:52;1.58;;;1.20;;
69319;SDS011;56467;53.502;49.248;2023-07-13T00:10:19;1.65;;;1.20;;
69319;SDS011;56467;53.502;49.248;2023-07-13T00:12:46;1.33;;;1.15;;
69319;SDS011;56467;53.502;49.248;2023-07-13T00:15:17;1.30;;;1.20;;
69319;SDS011;56467;53.502;49.248;2023-07-13T00:17:51;1.50;;;1.35;;
69319;SDS011;56467;53.502;49.248;2023-07-13T00:20:19;1.92;;;1.25;;
69319;SDS011;56467;53.502;49.248;2023-07-13T00:22:50;1.52;;;1.30;;
69319;SDS011;56467;53.502;49.248;2023-07-13T00:25:18;1.30;;;1.10;;
69319;SDS011;56467;53.502;49.248;2023-07-13T00:27:49;1.30;;;1.15;;
69319;SDS011;56467;53.502;49.248;2023-07-13T00:30:15;1.30;;;1.20;;
69319;SDS011;56467;53.502;49.248;2023-07-13T00:32:41;1.50;;;1.20;;
69319;SDS011;56467;53.502;49.248;2023-07-13T00:35:07;1.35;;;1.15;;
69319;SDS011;56467;53.502;49.248;2023-07-13T00:37:33;1.10;;;1.00;;
69319;SDS011;56467;53.502;49.248;2023-07-13T00:40:01;1.20;;;1.10;;
69319;SDS011;56467;53.502;49.248;2023-07-13T00:42:30;1.33;;;1.20;;
69319;SDS011;56467;53.502;49.248;2023-07-13T00:45:00;1.30;;;1.20;;
69319;SDS011;56467;53.502;49.248;2023-07-13T00:47:38;1.33;;;1.23;;
69319;SDS011;56467;53.502;49.248;2023-07-13T00:50:08;1.23;;;1.13;;
69319;SDS011;56467;53.502;49.248;2023-07-13T00:52:37;1.50;;;1.13;;
69319;SDS011;56467;53.502;49.248;2023-07-13T00:55:07;1.15;;;1.05;;
69319;SDS011;56467;53.502;49.248;2023-07-13T00:57:34;1.20;;;1.10;;
69319;SDS011;56467;53.502;49.248;2023-07-13T01:00:00;1.63;;;1.20;;
69319;SDS011;56467;53.502;49.248;2023-07-13T01:02:31;1.65;;;1.10;;
69319;SDS011;56467;53.502;49.248;2023-07-13T01:04:58;1.38;;;1.20;;
69319;SDS011;56467;53.502;49.248;2023-07-13T01:07:24;1.20;;;1.10;;
69319;SDS011;56467;53.502;49.248;2023-07-13T01:09:50;1.20;;;1.10;;
69319;SDS011;56467;53.502;49.248;2023-07-13T01:12:16;1.27;;;1.13;;
69319;SDS011;56467;53.502;49.248;2023-07-13T01:14:42;1.50;;;1.30;;
69319;SDS011;56467;53.502;49.248;2023-07-13T01:17:10;1.30;;;1.15;;
69319;SDS011;56467;53.502;49.248;2023-07-13T01:19:38;1.30;;;1.02;;
69319;SDS011;56467;53.502;49.248;2023-07-13T01:22:07;1.55;;;1.15;;
69319;SDS011;56467;53.502;49.248;2023-07-13T01:24:39;1.55;;;1.10;;
69319;SDS011;56467;53.502;49.248;2023-07-13T01:27:07;1.67;;;1.00;;
69319;SDS011;56467;53.502;49.248;2023-07-13T01:29:34;1.27;;;0.90;;
69319;SDS011;56467;53.502;49.248;2023-07-13T01:32:10;1.20;;;1.10;;
69319;SDS011;56467;53.502;49.248;2023-07-13T01:34:40;1.20;;;1.10;;
69319;SDS011;56467;53.502;49.248;2023-07-13T01:37:08;1.88;;;1.17;;
69319;SDS011;56467;53.502;49.248;2023-07-13T01:39:34;1.33;;;1.05;;
69319;SDS011;56467;53.502;49.248;2023-07-13T01:42:00;1.60;;;0.95;;
69319;SDS011;56467;53.502;49.248;2023-07-13T01:44:26;1.10;;;1.00;;
69319;SDS011;56467;53.502;49.248;2023-07-13T01:46:52;1.60;;;1.20;;
69319;SDS011;56467;53.502;49.248;2023-07-13T01:49:18;1.17;;;1.08;;
69319;SDS011;56467;53.502;49.248;2023-07-13T01:51:44;1.50;;;1.10;;
69319;SDS011;56467;53.502;49.248;2023-07-13T01:54:09;1.10;;;1.00;;
69319;SDS011;56467;53.502;49.248;2023-07-13T01:56:35;1.10;;;1.00;;
69319;SDS011;56467;53.502;49.248;2023-07-13T01:59:00;1.17;;;1.08;;
69319;SDS011;56467;53.502;49.248;2023-07-13T02:01:26;0.90;;;0.90;;
69319;SDS011;56467;53.502;49.248;2023-07-13T02:03:52;1.10;;;1.00;;
69319;SDS011;56467;53.502;49.248;2023-07-13T02:06:18;1.10;;;1.00;;
69319;SDS011;56467;53.502;49.248;2023-07-13T02:08:43;1.10;;;1.00;;
69319;SDS011;56467;53.502;49.248;2023-07-13T02:11:09;1.25;;;1.00;;
69319;SDS011;56467;53.502;49.248;2023-07-13T02:13:34;1.10;;;1.00;;
69319;SDS011;56467;53.502;49.248;2023-07-13T02:16:00;1.38;;;1.00;;
69319;SDS011;56467;53.502;49.248;2023-07-13T02:18:26;1.08;;;0.98;;
69319;SDS011;56467;53.502;49.248;2023-07-13T02:20:52;1.20;;;1.00;;
69319;SDS011;56467;53.502;49.248;2023-07-13T02:23:18;1.00;;;0.90;;
69319;SDS011;56467;53.502;49.248;2023-07-13T02:25:44;0.95;;;0.90;;
69319;SDS011;56467;53.502;49.248;2023-07-13T02:28:10;1.10;;;1.00;;
69319;SDS011;56467;53.502;49.248;2023-07-13T02:30:36;1.10;;;1.00;;
69319;SDS011;56467;53.502;49.248;2023-07-13T02:33:03;1.20;;;1.10;;
69319;SDS011;56467;53.502;49.248;2023-07-13T02:35:29;1.10;;;1.00;;
69319;SDS011;56467;53.502;49.248;2023-07-13T02:37:55;1.23;;;1.13;;
69319;SDS011;56467;53.502;49.248;2023-07-13T02:40:21;1.20;;;1.05;;
69319;SDS011;56467;53.502;49.248;2023-07-13T02:42:47;1.58;;;0.98;;
69319;SDS011;56467;53.502;49.248;2023-07-13T02:45:12;1.20;;;1.10;;
69319;SDS011;56467;53.502;49.248;2023-07-13T02:47:39;1.10;;;1.00;;
69319;SDS011;56467;53.502;49.248;2023-07-13T02:50:07;1.10;;;1.00;;
69319;SDS011;56467;53.502;49.248;2023-07-13T02:52:33;1.38;;;1.15;;
69319;SDS011;56467;53.502;49.248;2023-07-13T02:54:59;1.10;;;1.00;;
69319;SDS011;56467;53.502;49.248;2023-07-13T02:57:24;0.82;;;0.82;;
69319;SDS011;56467;53.502;49.248;2023-07-13T02:59:50;1.13;;;1.02;;
69319;SDS011;56467;53.502;49.248;2023-07-13T03:02:16;1.23;;;1.10;;
69319;SDS011;56467;53.502;49.248;2023-07-13T03:04:42;1.13;;;1.02;;
69319;SDS011;56467;53.502;49.248;2023-07-13T03:07:08;1.10;;;1.00;;
69319;SDS011;56467;53.502;49.248;2023-07-13T03:09:34;1.13;;;1.02;;
69319;SDS011;56467;53.502;49.248;2023-07-13T03:12:00;1.10;;;1.00;;
69319;SDS011;56467;53.502;49.248;2023-07-13T03:14:26;1.00;;;0.90;;
69319;SDS011;56467;53.502;49.248;2023-07-13T03:16:52;0.93;;;0.88;;
69319;SDS011;56467;53.502;49.248;2023-07-13T03:19:18;1.10;;;1.00;;
69319;SDS011;56467;53.502;49.248;2023-07-13T03:21:44;1.05;;;0.95;;
69319;SDS011;56467;53.502;49.248;2023-07-13T03:24:10;1.10;;;1.00;;
69319;SDS011;56467;53.502;49.248;2023-07-13T03:26:36;1.45;;;1.10;;
69319;SDS011;56467;53.502;49.248;2023-07-13T03:29:02;1.10;;;1.00;;
69319;SDS011;56467;53.502;49.248;2023-07-13T03:31:29;0.80;;;0.80;;
69319;SDS011;56467;53.502;49.248;2023-07-13T03:33:59;1.00;;;1.00;;
69319;SDS011;56467;53.502;49.248;2023-07-13T03:36:26;1.00;;;0.90;;
69319;SDS011;56467;53.502;49.248;2023-07-13T03:38:58;1.15;;;1.00;;
69319;SDS011;56467;53.502;49.248;2023-07-13T03:41:25;1.30;;;1.00;;
69319;SDS011;56467;53.502;49.248;2023-07-13T03:43:51;1.25;;;1.13;;
69319;SDS011;56467;53.502;49.248;2023-07-13T03:46:17;1.10;;;1.00;;
69319;SDS011;56467;53.502;49.248;2023-07-13T03:48:44;1.42;;;1.00;;
69319;SDS011;56467;53.502;49.248;2023-07-13T03:51:12;1.60;;;1.10;;
69319;SDS011;56467;53.502;49.248;2023-07-13T03:53:40;1.60;;;1.00;;
69319;SDS011;56467;53.502;49.248;2023-07-13T03:56:07;1.13;;;1.02;;
69319;SDS011;56467;53.502;49.248;2023-07-13T03:58:34;1.17;;;1.08;;
69319;SDS011;56467;53.502;49.248;2023-07-13T04:01:02;1.20;;;1.10;;
69319;SDS011;56467;53.502;49.248;2023-07-13T04:03:30;1.10;;;1.00;;
69319;SDS011;56467;53.502;49.248;2023-07-13T04:05:58;1.42;;;0.98;;
69319;SDS011;56467;53.502;49.248;2023-07-13T04:08:28;1.33;;;1.02;;
69319;SDS011;56467;53.502;49.248;2023-07-13T04:10:56;1.02;;;0.93;;
69319;SDS011;56467;53.502;49.248;2023-07-13T04:13:22;1.20;;;1.08;;
69319;SDS011;56467;53.502;49.248;2023-07-13T04:15:49;1.92;;;1.00;;
69319;SDS011;56467;53.502;49.248;2023-07-13T04:18:15;1.42;;;0.95;;
69319;SDS011;56467;53.502;49.248;2023-07-13T04:20:41;1.20;;;1.10;;
69319;SDS011;56467;53.502;49.248;2023-07-13T04:23:07;0.98;;;0.98;;
69319;SDS011;56467;53.502;49.248;2023-07-13T04:25:32;1.10;;;1.00;;
69319;SDS011;56467;53.502;49.248;2023-07-13T04:27:58;1.27;;;1.00;;
69319;SDS011;56467;53.502;49.248;2023-07-13T04:30:24;0.90;;;0.90;;
69319;SDS011;56467;53.502;49.248;2023-07-13T04:32:50;1.10;;;1.00;;
69319;SDS011;56467;53.502;49.248;2023-07-13T04:35:17;1.40;;;1.00;;
69319;SDS011;56467;53.502;49.248;2023-07-13T04:37:46;1.40;;;1.10;;
69319;SDS011;56467;53.502;49.248;2023-07-13T04:40:13;0.82;;;0.82;;
69319;SDS011;56467;53.502;49.248;2023-07-13T04:42:39;1.20;;;1.10;;
69319;SDS011;56467;53.502;49.248;2023-07-13T04:45:07;1.30;;;1.00;;
69319;SDS011;56467;53.502;49.248;2023-07-13T04:47:33;1.27;;;1.08;;
69319;SDS011;56467;53.502;49.248;2023-07-13T04:49:59;0.90;;;0.90;;
69319;SDS011;56467;53.502;49.248;2023-07-13T04:52:25;1.10;;;1.00;;
69319;SDS011;56467;53.502;49.248;2023-07-13T04:54:50;1.33;;;1.08;;
69319;SDS011;56467;53.502;49.248;2023-07-13T04:57:16;1.20;;;1.10;;
69319;SDS011;56467;53.502;49.248;2023-07-13T04:59:41;0.98;;;0.93;;
69319;SDS011;56467;53.502;49.248;2023-07-13T05:02:07;1.08;;;0.98;;
69319;SDS011;56467;53.502;49.248;2023-07-13T05:04:33;1.02;;;0.93;;
69319;SDS011;56467;53.502;49.248;2023-07-13T05:06:59;1.23;;;1.13;;
69319;SDS011;56467;53.502;49.248;2023-07-13T05:09:25;1.00;;;1.00;;
69319;SDS011;56467;53.502;49.248;2023-07-13T05:11:50;1.30;;;1.20;;
69319;SDS011;56467;53.502;49.248;2023-07-13T05:14:16;1.20;;;1.10;;
69319;SDS011;56467;53.502;49.248;2023-07-13T05:16:42;1.10;;;1.00;;
69319;SDS011;56467;53.502;49.248;2023-07-13T05:19:08;1.42;;;0.93;;
69319;SDS011;56467;53.502;49.248;2023-07-13T05:21:34;1.30;;;1.10;;
69319;SDS011;56467;53.502;49.248;2023-07-13T05:23:59;2.00;;;1.20;;
69319;SDS011;56467;53.502;49.248;2023-07-13T05:26:25;1.00;;;1.00;;
69319;SDS011;56467;53.502;49.248;2023-07-13T05:28:51;1.10;;;1.00;;
69319;SDS011;56467;53.502;49.248;2023-07-13T05:31:17;1.25;;;1.10;;
69319;SDS011;56467;53.502;49.248;2023-07-13T05:33:42;0.98;;;0.93;;
69319;SDS011;56467;53.502;49.248;2023-07-13T05:36:08;0.95;;;0.95;;
69319;SDS011;56467;53.502;49.248;2023-07-13T05:38:34;1.27;;;1.10;;
69319;SDS011;56467;53.502;49.248;2023-07-13T05:40:59;1.15;;;1.00;;
69319;SDS011;56467;53.502;49.248;2023-07-13T05:43:25;1.30;;;1.20;;
69319;SDS011;56467;53.502;49.248;2023-07-13T05:45:55;1.27;;;1.02;;
69319;SDS011;56467;53.502;49.248;2023-07-13T05:48:21;2.67;;;1.20;;
69319;SDS011;56467;53.502;49.248;2023-07-13T05:50:47;1.13;;;1.02;;
69319;SDS011;56467;53.502;49.248;2023-07-13T05:53:14;1.23;;;1.10;;
69319;SDS011;56467;53.502;49.248;2023-07-13T05:55:46;1.27;;;1.10;;
69319;SDS011;56467;53.502;49.248;2023-07-13T05:58:15;1.65;;;1.10;;
69319;SDS011;56467;53.502;49.248;2023-07-13T06:00:42;1.00;;;1.00;;
69319;SDS011;56467;53.502;49.248;2023-07-13T06:03:08;1.00;;;1.00;;
69319;SDS011;56467;53.502;49.248;2023-07-13T06:05:34;1.17;;;1.08;;
69319;SDS011;56467;53.502;49.248;2023-07-13T06:08:01;2.05;;;1.10;;
69319;SDS011;56467;53.502;49.248;2023-07-13T06:10:27;1.15;;;1.05;;
69319;SDS011;56467;53.502;49.248;2023-07-13T06:12:53;1.55;;;1.23;;
69319;SDS011;56467;53.502;49.248;2023-07-13T06:15:19;1.42;;;1.10;;
69319;SDS011;56467;53.502;49.248;2023-07-13T06:17:45;1.42;;;1.15;;
69319;SDS011;56467;53.502;49.248;2023-07-13T06:20:10;1.02;;;0.90;;
69319;SDS011;56467;53.502;49.248;2023-07-13T06:22:36;1.77;;;1.00;;
69319;SDS011;56467;53.502;49.248;2023-07-13T06:25:02;1.30;;;1.20;;
69319;SDS011;56467;53.502;49.248;2023-07-13T06:27:28;0.93;;;0.90;;
69319;SDS011;56467;53.502;49.248;2023-07-13T06:29:53;1.98;;;1.20;;
69319;SDS011;56467;53.502;49.248;2023-07-13T06:32:19;1.20;;;1.10;;
69319;SDS011;56467;53.502;49.248;2023-07-13T06:34:45;1.30;;;1.10;;
69319;SDS011;56467;53.502;49.248;2023-07-13T06:37:11;1.00;;;1.00;;
69319;SDS011;56467;53.502;49.248;2023-07-13T06:39:36;1.10;;;1.00;;
69319;SDS011;56467;53.502;49.248;2023-07-13T06:42:02;1.20;;;1.10;;
69319;SDS011;56467;53.502;49.248;2023-07-13T06:44:28;1.20;;;1.10;;
69319;SDS011;56467;53.502;49.248;2023-07-13T06:46:54;1.67;;;1.30;;
69319;SDS011;56467;53.502;49.248;2023-07-13T06:49:19;1.05;;;1.00;;
69319;SDS011;56467;53.502;49.248;2023-07-13T06:51:45;2.17;;;1.15;;
69319;SDS011;56467;53.502;49.248;2023-07-13T06:54:11;1.17;;;1.10;;
69319;SDS011;56467;53.502;49.248;2023-07-13T06:56:36;1.23;;;1.10;;
69319;SDS011;56467;53.502;49.248;2023-07-13T06:59:02;0.90;;;0.80;;
69319;SDS011;56467;53.502;49.248;2023-07-13T07:01:28;1.33;;;1.10;;
69319;SDS011;56467;53.502;49.248;2023-07-13T07:03:54;0.88;;;0.85;;
69319;SDS011;56467;53.502;49.248;2023-07-13T07:06:20;1.65;;;1.08;;
69319;SDS011;56467;53.502;49.248;2023-07-13T07:08:48;1.55;;;1.10;;
69319;SDS011;56467;53.502;49.248;2023-07-13T07:11:22;1.10;;;0.90;;
69319;SDS011;56467;53.502;49.248;2023-07-13T07:13:50;1.02;;;0.93;;
69319;SDS011;56467;53.502;49.248;2023-07-13T07:16:16;1.20;;;1.10;;
69319;SDS011;56467;53.502;49.248;2023-07-13T07:18:43;1.55;;;1.10;;
69319;SDS011;56467;53.502;49.248;2023-07-13T07:21:09;1.00;;;1.00;;
69319;SDS011;56467;53.502;49.248;2023-07-13T07:23:34;1.38;;;1.25;;
69319;SDS011;56467;53.502;49.248;2023-07-13T07:26:00;1.27;;;1.05;;
69319;SDS011;56467;53.502;49.248;2023-07-13T07:28:26;1.38;;;1.17;;
69319;SDS011;56467;53.502;49.248;2023-07-13T07:30:54;0.90;;;0.90;;
69319;SDS011;56467;53.502;49.248;2023-07-13T07:33:21;1.40;;;1.10;;
69319;SDS011;56467;53.502;49.248;2023-07-13T07:35:47;1.40;;;1.00;;
69319;SDS011;56467;53.502;49.248;2023-07-13T07:38:12;1.73;;;1.23;;
69319;SDS011;56467;53.502;49.248;2023-07-13T07:40:39;1.13;;;1.05;;
69319;SDS011;56467;53.502;49.248;2023-07-13T07:43:06;0.95;;;0.88;;
69319;SDS011;56467;53.502;49.248;2023-07-13T07:45:32;1.10;;;1.00;;
69319;SDS011;56467;53.502;49.248;2023-07-13T07:47:58;1.13;;;1.02;;
69319;SDS011;56467;53.502;49.248;2023-07-13T07:50:27;1.20;;;1.05;;
69319;SDS011;56467;53.502;49.248;2023-07-13T07:52:53;1.38;;;1.08;;
69319;SDS011;56467;53.502;49.248;2023-07-13T07:55:23;1.50;;;1.00;;
69319;SDS011;56467;53.502;49.248;2023-07-13T07:57:51;1.05;;;1.00;;
69319;SDS011;56467;53.502;49.248;2023-07-13T08:00:17;1.90;;;1.10;;
69319;SDS011;56467;53.502;49.248;2023-07-13T08:02:44;2.05;;;1.10;;
69319;SDS011;56467;53.502;49.248;2023-07-13T08:05:10;1.38;;;1.27;;
69319;SDS011;56467;53.502;49.248;2023-07-13T08:07:37;1.20;;;1.10;;
69319;SDS011;56467;53.502;49.248;2023-07-13T08:10:04;1.25;;;0.98;;
69319;SDS011;56467;53.502;49.248;2023-07-13T08:12:33;1.30;;;1.20;;
69319;SDS011;56467;53.502;49.248;2023-07-13T08:15:03;1.23;;;1.10;;
69319;SDS011;56467;53.502;49.248;2023-07-13T08:17:30;1.45;;;1.10;;
69319;SDS011;56467;53.502;49.248;2023-07-13T08:19:56;2.05;;;1.23;;
69319;SDS011;56467;53.502;49.248;2023-07-13T08:22:22;1.88;;;1.17;;
69319;SDS011;56467;53.502;49.248;2023-07-13T08:24:47;1.40;;;1.30;;
69319;SDS011;56467;53.502;49.248;2023-07-13T08:27:20;2.55;;;1.27;;
69319;SDS011;56467;53.502;49.248;2023-07-13T08:29:47;1.70;;;1.30;;
69319;SDS011;56467;53.502;49.248;2023-07-13T08:32:13;1.30;;;1.10;;
69319;SDS011;56467;53.502;49.248;2023-07-13T08:34:39;1.25;;;1.20;;
69319;SDS011;56467;53.502;49.248;2023-07-13T08:37:05;1.38;;;1.27;;
69319;SDS011;56467;53.502;49.248;2023-07-13T08:39:31;1.63;;;1.10;;
69319;SDS011;56467;53.502;49.248;2023-07-13T08:42:01;1.35;;;1.25;;
69319;SDS011;56467;53.502;49.248;2023-07-13T08:44:37;1.23;;;1.13;;
69319;SDS011;56467;53.502;49.248;2023-07-13T08:47:12;2.10;;;1.30;;
69319;SDS011;56467;53.502;49.248;2023-07-13T08:49:40;1.60;;;1.33;;
69319;SDS011;56467;53.502;49.248;2023-07-13T08:52:20;1.50;;;1.25;;
69319;SDS011;56467;53.502;49.248;2023-07-13T08:54:51;1.95;;;1.20;;
69319;SDS011;56467;53.502;49.248;2023-07-13T08:57:21;1.20;;;1.10;;
69319;SDS011;56467;53.502;49.248;2023-07-13T08:59:56;1.55;;;1.45;;
69319;SDS011;56467;53.502;49.248;2023-07-13T09:02:27;1.50;;;1.40;;
69319;SDS011;56467;53.502;49.248;2023-07-13T09:04:58;1.40;;;1.30;;
69319;SDS011;56467;53.502;49.248;2023-07-13T09:10:23;1.50;;;1.40;;
69319;SDS011;56467;53.502;49.248;2023-07-13T09:13:00;1.40;;;1.30;;
69319;SDS011;56467;53.502;49.248;2023-07-13T09:15:46;2.67;;;1.45;;
69319;SDS011;56467;53.502;49.248;2023-07-13T09:18:16;1.33;;;1.20;;
69319;SDS011;56467;53.502;49.248;2023-07-13T09:23:20;2.17;;;1.50;;
69319;SDS011;56467;53.502;49.248;2023-07-13T09:25:48;1.30;;;1.20;;
69319;SDS011;56467;53.502;49.248;2023-07-13T09:28:22;1.38;;;1.27;;
69319;SDS011;56467;53.502;49.248;2023-07-13T09:33:23;1.45;;;1.35;;
69319;SDS011;56467;53.502;49.248;2023-07-13T09:35:50;1.63;;;1.48;;
69319;SDS011;56467;53.502;49.248;2023-07-13T09:38:16;1.85;;;1.50;;
69319;SDS011;56467;53.502;49.248;2023-07-13T09:43:19;1.90;;;1.40;;
69319;SDS011;56467;53.502;49.248;2023-07-13T09:45:46;1.52;;;1.40;;
69319;SDS011;56467;53.502;49.248;2023-07-13T09:48:13;1.65;;;1.50;;
69319;SDS011;56467;53.502;49.248;2023-07-13T09:50:40;1.88;;;1.35;;
69319;SDS011;56467;53.502;49.248;2023-07-13T09:53:14;1.42;;;1.33;;
69319;SDS011;56467;53.502;49.248;2023-07-13T09:55:42;1.70;;;1.40;;
69319;SDS011;56467;53.502;49.248;2023-07-13T09:58:14;1.90;;;1.30;;
69319;SDS011;56467;53.502;49.248;2023-07-13T10:00:42;2.03;;;1.50;;
69319;SDS011;56467;53.502;49.248;2023-07-13T10:03:19;1.50;;;1.40;;
69319;SDS011;56467;53.502;49.248;2023-07-13T10:05:48;1.92;;;1.50;;
69319;SDS011;56467;53.502;49.248;2023-07-13T10:08:17;1.55;;;1.45;;
69319;SDS011;56467;53.502;49.248;2023-07-13T10:11:02;1.27;;;1.17;;
69319;SDS011;56467;53.502;49.248;2023-07-13T10:13:37;2.15;;;1.50;;
69319;SDS011;56467;53.502;49.248;2023-07-13T10:16:08;1.87;;;1.33;;
69319;SDS011;56467;53.502;49.248;2023-07-13T10:21:27;2.00;;;1.50;;
69319;SDS011;56467;53.502;49.248;2023-07-13T10:24:10;1.60;;;1.50;;
69319;SDS011;56467;53.502;49.248;2023-07-13T10:26:45;2.75;;;1.50;;
69319;SDS011;56467;53.502;49.248;2023-07-13T10:29:17;2.28;;;1.50;;
69319;SDS011;56467;53.502;49.248;2023-07-13T10:31:44;1.65;;;1.40;;
69319;SDS011;56467;53.502;49.248;2023-07-13T10:34:11;2.75;;;1.48;;
69319;SDS011;56467;53.502;49.248;2023-07-13T10:39:05;2.38;;;1.55;;
69319;SDS011;56467;53.502;49.248;2023-07-13T10:41:36;2.20;;;1.50;;
69319;SDS011;56467;53.502;49.248;2023-07-13T10:44:06;1.65;;;1.25;;
69319;SDS011;56467;53.502;49.248;2023-07-13T10:46:45;1.42;;;1.30;;
69319;SDS011;56467;53.502;49.248;2023-07-13T10:49:11;1.30;;;1.20;;
69319;SDS011;56467;53.502;49.248;2023-07-13T10:51:37;1.60;;;1.48;;
69319;SDS011;56467;53.502;49.248;2023-07-13T10:56:41;1.70;;;1.48;;
69319;SDS011;56467;53.502;49.248;2023-07-13T11:01:51;1.73;;;1.30;;
69319;SDS011;56467;53.502;49.248;2023-07-13T11:04:21;1.40;;;1.30;;
69319;SDS011;56467;53.502;49.248;2023-07-13T11:06:50;1.88;;;1.58;;
69319;SDS011;56467;53.502;49.248;2023-07-13T11:09:40;2.28;;;1.50;;
69319;SDS011;56467;53.502;49.248;2023-07-13T11:12:50;1.60;;;1.48;;
69319;SDS011;56467;53.502;49.248;2023-07-13T11:15:13;2.17;;;1.40;;
69319;SDS011;56467;53.502;49.248;2023-07-13T11:17:49;1.85;;;1.40;;
69319;SDS011;56467;53.502;49.248;2023-07-13T11:20:32;1.52;;;1.33;;
69319;SDS011;56467;53.502;49.248;2023-07-13T11:25:34;1.95;;;1.20;;
69319;SDS011;56467;53.502;49.248;2023-07-13T11:30:44;2.03;;;1.35;;
69319;SDS011;56467;53.502;49.248;2023-07-13T11:33:22;2.40;;;1.40;;
69319;SDS011;56467;53.502;49.248;2023-07-13T11:36:03;1.55;;;1.40;;
69319;SDS011;56467;53.502;49.248;2023-07-13T11:38:40;2.58;;;1.35;;
69319;SDS011;56467;53.502;49.248;2023-07-13T11:41:18;2.50;;;1.33;;
69319;SDS011;56467;53.502;49.248;2023-07-13T11:43:53;2.17;;;1.45;;
69319;SDS011;56467;53.502;49.248;2023-07-13T11:46:22;1.95;;;1.40;;
69319;SDS011;56467;53.502;49.248;2023-07-13T11:48:50;1.27;;;1.17;;
69319;SDS011;56467;53.502;49.248;2023-07-13T11:51:19;1.40;;;1.30;;
69319;SDS011;56467;53.502;49.248;2023-07-13T11:54:00;1.63;;;1.20;;
69319;SDS011;56467;53.502;49.248;2023-07-13T11:56:29;1.65;;;1.33;;
69319;SDS011;56467;53.502;49.248;2023-07-13T11:58:56;2.08;;;1.30;;
69319;SDS011;56467;53.502;49.248;2023-07-13T12:01:25;2.35;;;1.15;;
69319;SDS011;56467;53.502;49.248;2023-07-13T12:03:58;1.90;;;1.20;;
69319;SDS011;56467;53.502;49.248;2023-07-13T12:06:32;1.48;;;1.38;;
69319;SDS011;56467;53.502;49.248;2023-07-13T12:09:10;3.17;;;1.40;;
69319;SDS011;56467;53.502;49.248;2023-07-13T12:11:38;1.52;;;1.17;;
69319;SDS011;56467;53.502;49.248;2023-07-13T12:14:05;3.40;;;1.50;;
69319;SDS011;56467;53.502;49.248;2023-07-13T12:16:36;2.30;;;1.40;;
69319;SDS011;56467;53.502;49.248;2023-07-13T12:19:02;2.50;;;1.33;;
69319;SDS011;56467;53.502;49.248;2023-07-13T12:21:39;2.35;;;1.40;;
69319;SDS011;56467;53.502;49.248;2023-07-13T12:24:13;1.30;;;1.20;;
69319;SDS011;56467;53.502;49.248;2023-07-13T12:26:43;1.63;;;1.20;;
69319;SDS011;56467;53.502;49.248;2023-07-13T12:29:15;1.55;;;1.38;;
69319;SDS011;56467;53.502;49.248;2023-07-13T12:31:43;2.35;;;1.35;;
69319;SDS011;56467;53.502;49.248;2023-07-13T12:34:15;2.20;;;1.40;;
69319;SDS011;56467;53.502;49.248;2023-07-13T12:36:47;2.42;;;1.42;;
69319;SDS011;56467;53.502;49.248;2023-07-13T12:39:21;3.70;;;1.20;;
69319;SDS011;56467;53.502;49.248;2023-07-13T12:44:49;4.90;;;1.40;;
69319;SDS011;56467;53.502;49.248;2023-07-13T12:47:15;2.90;;;1.30;;
69319;SDS011;56467;53.502;49.248;2023-07-13T12:49:54;2.67;;;1.42;;
69319;SDS011;56467;53.502;49.248;2023-07-13T12:52:29;2.45;;;1.40;;
69319;SDS011;56467;53.502;49.248;2023-07-13T12:55:03;2.63;;;1.30;;
69319;SDS011;56467;53.502;49.248;2023-07-13T12:57:49;2.47;;;1.40;;
69319;SDS011;56467;53.502;49.248;2023-07-13T13:00:29;2.05;;;1.27;;
69319;SDS011;56467;53.502;49.248;2023-07-13T13:03:18;1.88;;;1.05;;
69319;SDS011;56467;53.502;49.248;2023-07-13T13:08:31;1.92;;;1.10;;
69319;SDS011;56467;53.502;49.248;2023-07-13T13:10:58;1.83;;;1.25;;
69319;SDS011;56467;53.502;49.248;2023-07-13T13:13:23;1.80;;;1.25;;
69319;SDS011;56467;53.502;49.248;2023-07-13T13:15:49;2.10;;;1.45;;
69319;SDS011;56467;53.502;49.248;2023-07-13T13:18:22;2.78;;;1.40;;
69319;SDS011;56467;53.502;49.248;2023-07-13T13:20:50;3.25;;;1.40;;
69319;SDS011;56467;53.502;49.248;2023-07-13T13:23:17;2.42;;;1.30;;
69319;SDS011;56467;53.502;49.248;2023-07-13T13:25:45;1.80;;;1.20;;
69319;SDS011;56467;53.502;49.248;2023-07-13T13:28:16;1.65;;;1.10;;
69319;SDS011;56467;53.502;49.248;2023-07-13T13:30:44;1.85;;;1.40;;
69319;SDS011;56467;53.502;49.248;2023-07-13T13:33:12;2.08;;;1.17;;
69319;SDS011;56467;53.502;49.248;2023-07-13T13:35:41;1.40;;;1.20;;
69319;SDS011;56467;53.502;49.248;2023-07-13T13:38:13;2.85;;;1.50;;
69319;SDS011;56467;53.502;49.248;2023-07-13T13:40:41;1.92;;;1.38;;
69319;SDS011;56467;53.502;49.248;2023-07-13T13:43:18;7.78;;;4.07;;
69319;SDS011;56467;53.502;49.248;2023-07-13T13:45:51;9.82;;;4.95;;
69319;SDS011;56467;53.502;49.248;2023-07-13T13:48:20;9.88;;;5.60;;
69319;SDS011;56467;53.502;49.248;2023-07-13T13:50:55;10.65;;;5.68;;
69319;SDS011;56467;53.502;49.248;2023-07-13T13:53:21;9.60;;;5.72;;
69319;SDS011;56467;53.502;49.248;2023-07-13T13:55:48;12.25;;;6.30;;
69319;SDS011;56467;53.502;49.248;2023-07-13T13:58:17;13.30;;;6.15;;
69319;SDS011;56467;53.502;49.248;2023-07-13T14:00:42;12.25;;;6.05;;
69319;SDS011;56467;53.502;49.248;2023-07-13T14:03:20;11.32;;;6.03;;
69319;SDS011;56467;53.502;49.248;2023-07-13T14:05:47;12.80;;;5.85;;
69319;SDS011;56467;53.502;49.248;2023-07-13T14:08:14;10.45;;;5.82;;
69319;SDS011;56467;53.502;49.248;2023-07-13T14:10:41;11.15;;;5.32;;
69319;SDS011;56467;53.502;49.248;2023-07-13T14:13:14;10.63;;;5.28;;
69319;SDS011;56467;53.502;49.248;2023-07-13T14:15:43;9.32;;;4.75;;
69319;SDS011;56467;53.502;49.248;2023-07-13T14:18:10;8.25;;;4.55;;
69319;SDS011;56467;53.502;49.248;2023-07-13T14:20:36;10.30;;;4.75;;
69319;SDS011;56467;53.502;49.248;2023-07-13T14:23:02;10.45;;;4.78;;
69319;SDS011;56467;53.502;49.248;2023-07-13T14:25:28;7.53;;;4.25;;
69319;SDS011;56467;53.502;49.248;2023-07-13T14:27:56;9.13;;;4.72;;
69319;SDS011;56467;53.502;49.248;2023-07-13T14:30:32;7.97;;;4.15;;
69319;SDS011;56467;53.502;49.248;2023-07-13T14:32:58;7.35;;;3.95;;
69319;SDS011;56467;53.502;49.248;2023-07-13T14:35:24;7.30;;;3.55;;
69319;SDS011;56467;53.502;49.248;2023-07-13T14:37:50;8.27;;;4.00;;
69319;SDS011;56467;53.502;49.248;2023-07-13T14:40:17;9.05;;;3.92;;
69319;SDS011;56467;53.502;49.248;2023-07-13T14:42:54;8.55;;;3.72;;
69319;SDS011;56467;53.502;49.248;2023-07-13T14:45:20;6.70;;;3.58;;
69319;SDS011;56467;53.502;49.248;2023-07-13T14:47:46;7.75;;;3.90;;
69319;SDS011;56467;53.502;49.248;2023-07-13T14:50:25;5.53;;;3.45;;
69319;SDS011;56467;53.502;49.248;2023-07-13T14:52:55;5.93;;;3.35;;
69319;SDS011;56467;53.502;49.248;2023-07-13T14:55:21;6.95;;;3.53;;
69319;SDS011;56467;53.502;49.248;2023-07-13T14:57:47;6.32;;;3.50;;
69319;SDS011;56467;53.502;49.248;2023-07-13T15:00:15;7.18;;;3.53;;
69319;SDS011;56467;53.502;49.248;2023-07-13T15:02:44;6.72;;;2.95;;
69319;SDS011;56467;53.502;49.248;2023-07-13T15:07:40;6.88;;;3.50;;
69319;SDS011;56467;53.502;49.248;2023-07-13T15:10:16;5.80;;;3.20;;
69319;SDS011;56467;53.502;49.248;2023-07-13T15:12:47;7.57;;;3.20;;
69319;SDS011;56467;53.502;49.248;2023-07-13T15:15:12;7.65;;;3.13;;